โซล, South Korea

05:59 PM KST วัน สิงหาคม 30, 2016 (GMT +0900)
Incheon International | | Change Station

Elev 23 ft 37.47 °N, 126.45 °E | Updated 29 minutes ago

Mostly Cloudy
มีเมฆคลุมเป็นส่วนใหญ่
73 ฟาเรนไฮน์
Feels Like 73 ฟาเรนไฮน์
N
25
ลม ความผันแปร ลม from ทางทิศตะวันตกเฉียงเหนือ

วันนี้
High -- | Low -- ฟาเรนไฮน์
--% Chance of Precip.
Yesterday
High -- | Low -- ฟาเรนไฮน์
Precip. -- นิ้ว
ความดัน 29.27 นิ้ว
ทัศนวิสัย 6.2 ไมล์
เมฆ มีเมฆคลุมเป็นบางส่วน 3000 ft
มีเมฆคลุมเป็นส่วนใหญ่ 11000 ft
อุณหภูมิที่อากาศอาจจับตัวเป็นหยาดน้ำค้าง 54 ฟาเรนไฮน์
ความชื้น 50%
Rainfall 0.00 นิ้ว
Snow Depth Not available.
6:00 AM 7:04 PM
เดือนเสี้ยว, 4% visible
METAR RKSI 300830Z 31022KT 9999 SCT030 BKN110 23/12 Q0991 NOSIG
ความดัน 29.27 นิ้ว
ทัศนวิสัย 6.2 ไมล์
เมฆ มีเมฆคลุมเป็นบางส่วน 3000 ft
มีเมฆคลุมเป็นส่วนใหญ่ 11000 ft
อุณหภูมิที่อากาศอาจจับตัวเป็นหยาดน้ำค้าง 54 ฟาเรนไฮน์
ความชื้น 50%
Rainfall 0.00 นิ้ว
Snow Depth Not available.
6:00 AM 7:04 PM
เดือนเสี้ยว, 4% visible
METAR RKSI 300830Z 31022KT 9999 SCT030 BKN110 23/12 Q0991 NOSIG

10-Day Weather Forecast

No radar image for this location.
×

Almanac

ดาราศาสตร์

Aug. 30, 2016 Rise Set
Actual Time
Civil Twilight
Nautical Twilight
Astronomical Twilight
Moon
Length Of Visible Light
ความยาวของวัน
Tomorrow will be .
, % of the Moon is Illuminated

Today's Extremes

Country Highs Country Lows

Community

WunderPhotos

Upload Photos

1,935,795 photos uploaded!

WunderBlog® & News

Nearby

Air Quality

  Air Quality AQ Index Pollutant
Not available.

Snow Depth

Station Depth Elevation

Earthquake Activity

City Distance Mag. Time & Date
Minimum magnitude displayed is 2.5.

Coastal Water Temperatures

สถานที่ อุณหภูมิ

Stations

Nearby Weather Stations

Station Location Temp ลมหนาว อุณหภูมิที่อากาศอาจจับตัวเป็นหยาดน้ำค้าง ความชื้น ลม Precip. Elev ปรับปรุงล่าสุด Type